createdAt,value
2023-05-12T00:02:17.563Z,9.23
2023-05-12T00:04:44.303Z,8.27
2023-05-12T00:07:10.972Z,9.70
2023-05-12T00:09:37.758Z,9.70
2023-05-12T00:12:04.680Z,10.20
2023-05-12T00:14:31.274Z,9.90
2023-05-12T00:16:57.806Z,10.40
2023-05-12T00:19:24.452Z,10.70
2023-05-12T00:21:50.992Z,9.80
2023-05-12T00:24:17.515Z,9.47
2023-05-12T00:26:44.133Z,10.57
2023-05-12T00:29:10.668Z,9.80
2023-05-12T00:31:37.229Z,9.37
2023-05-12T00:34:03.825Z,9.57
2023-05-12T00:36:30.476Z,10.97
2023-05-12T00:38:57.157Z,10.77
2023-05-12T00:41:24.297Z,10.37
2023-05-12T00:43:50.906Z,11.30
2023-05-12T00:46:18.043Z,9.90
2023-05-12T00:48:46.193Z,10.83
2023-05-12T00:51:13.439Z,10.23
2023-05-12T00:53:48.400Z,10.57
2023-05-12T00:56:18.978Z,10.40
2023-05-12T00:58:47.520Z,10.13
2023-05-12T01:01:15.362Z,9.50
2023-05-12T01:03:43.496Z,9.90
2023-05-12T01:06:13.788Z,9.83
2023-05-12T01:08:42.102Z,9.60
2023-05-12T01:11:09.800Z,10.07
2023-05-12T01:13:37.565Z,9.77
2023-05-12T01:16:07.508Z,9.70
2023-05-12T01:18:37.769Z,9.80
2023-05-12T01:21:07.084Z,10.67
2023-05-12T01:23:40.156Z,10.83
2023-05-12T01:26:07.833Z,10.77
2023-05-12T01:28:37.568Z,9.90
2023-05-12T01:31:07.926Z,9.70
2023-05-12T01:33:38.319Z,9.13
2023-05-12T01:36:05.653Z,9.80
2023-05-12T01:38:32.980Z,9.50
2023-05-12T01:40:59.668Z,9.50
2023-05-12T01:43:26.209Z,9.20
2023-05-12T01:45:52.975Z,9.93
2023-05-12T01:48:19.597Z,9.20
2023-05-12T01:50:46.501Z,8.83
2023-05-12T01:53:18.696Z,9.43
2023-05-12T01:55:45.612Z,9.57
2023-05-12T01:58:13.521Z,8.77
2023-05-12T02:00:40.121Z,8.40
2023-05-12T02:03:12.990Z,9.67
2023-05-12T02:05:39.598Z,9.03
2023-05-12T02:08:07.192Z,9.00
2023-05-12T02:10:33.778Z,8.57
2023-05-12T02:13:00.354Z,8.50
2023-05-12T02:15:27.684Z,7.97
2023-05-12T02:17:55.539Z,7.97
2023-05-12T02:20:23.511Z,7.63
2023-05-12T02:22:50.192Z,8.63
2023-05-12T02:25:16.909Z,9.00
2023-05-12T02:27:45.004Z,7.90
2023-05-12T02:30:12.048Z,7.37
2023-05-12T02:32:38.654Z,7.67
2023-05-12T02:35:07.483Z,8.00
2023-05-12T02:37:34.766Z,8.13
2023-05-12T02:40:01.322Z,8.40
2023-05-12T02:42:33.651Z,8.13
2023-05-12T02:45:00.303Z,7.80
2023-05-12T02:47:26.858Z,7.23
2023-05-12T02:49:55.485Z,6.70
2023-05-12T02:52:22.510Z,7.07
2023-05-12T02:54:49.181Z,8.10
2023-05-12T02:57:15.776Z,7.80
2023-05-12T02:59:42.381Z,7.73
2023-05-12T03:02:09.075Z,6.83
2023-05-12T03:04:36.872Z,7.30
2023-05-12T03:07:03.941Z,7.57
2023-05-12T03:09:30.805Z,7.23
2023-05-12T03:11:57.535Z,8.27
2023-05-12T03:14:26.106Z,8.47
2023-05-12T03:16:52.738Z,8.00
2023-05-12T03:19:19.337Z,8.00
2023-05-12T03:21:46.027Z,7.50
2023-05-12T03:24:12.562Z,7.63
2023-05-12T03:26:39.147Z,8.37
2023-05-12T03:29:05.709Z,8.43
2023-05-12T03:31:32.599Z,7.67
2023-05-12T03:33:59.404Z,7.67
2023-05-12T03:36:26.584Z,7.10
2023-05-12T03:38:53.172Z,8.17
2023-05-12T03:41:19.754Z,7.70
2023-05-12T03:43:46.544Z,7.03
2023-05-12T03:46:13.703Z,7.57
2023-05-12T03:48:40.352Z,7.10
2023-05-12T03:51:07.197Z,6.23
2023-05-12T03:53:33.794Z,7.60
2023-05-12T03:56:05.062Z,7.60
2023-05-12T03:58:32.729Z,7.37
2023-05-12T04:01:01.438Z,7.20
2023-05-12T04:03:28.901Z,7.70
2023-05-12T04:06:00.104Z,8.10
2023-05-12T04:08:27.337Z,7.10
2023-05-12T04:10:58.630Z,6.90
2023-05-12T04:13:25.913Z,7.43
2023-05-12T04:15:56.727Z,6.70
2023-05-12T04:18:24.819Z,7.20
2023-05-12T04:20:51.786Z,7.80
2023-05-12T04:23:18.444Z,7.13
2023-05-12T04:25:46.264Z,7.50
2023-05-12T04:28:13.031Z,7.20
2023-05-12T04:30:41.976Z,7.70
2023-05-12T04:33:09.952Z,6.60
2023-05-12T04:35:37.506Z,7.23
2023-05-12T04:38:04.756Z,7.30
2023-05-12T04:40:34.035Z,6.40
2023-05-12T04:43:01.575Z,6.67
2023-05-12T04:45:30.158Z,6.50
2023-05-12T04:47:56.772Z,6.40
2023-05-12T04:50:23.699Z,5.33
2023-05-12T04:52:50.310Z,6.27
2023-05-12T04:55:17.014Z,6.47
2023-05-12T04:57:44.267Z,6.37
2023-05-12T05:00:11.847Z,5.70
2023-05-12T05:02:39.084Z,6.17
2023-05-12T05:05:06.490Z,5.47
2023-05-12T05:07:33.074Z,5.30
2023-05-12T05:10:00.047Z,5.30
2023-05-12T05:12:26.713Z,5.00
2023-05-12T05:14:54.334Z,5.37
2023-05-12T05:17:20.927Z,5.00
2023-05-12T05:19:57.333Z,4.90
2023-05-12T05:22:27.832Z,4.20
2023-05-12T05:24:54.828Z,4.20
2023-05-12T05:27:21.410Z,4.33
2023-05-12T05:29:48.169Z,4.57
2023-05-12T05:32:14.887Z,4.87
2023-05-12T05:34:43.243Z,4.53
2023-05-12T05:37:10.912Z,4.60
2023-05-12T05:39:38.064Z,4.83
2023-05-12T05:42:04.818Z,5.40
2023-05-12T05:44:31.845Z,5.17
2023-05-12T05:46:59.530Z,4.60
2023-05-12T05:49:27.275Z,4.50
2023-05-12T05:51:55.264Z,4.63
2023-05-12T05:54:25.468Z,4.97
2023-05-12T05:56:52.232Z,4.83
2023-05-12T05:59:18.864Z,4.33
2023-05-12T06:01:45.977Z,5.00
2023-05-12T06:04:12.676Z,4.33
2023-05-12T06:06:39.324Z,4.33
2023-05-12T06:09:06.199Z,4.37
2023-05-12T06:11:33.320Z,5.40
2023-05-12T06:13:59.818Z,4.60
2023-05-12T06:16:26.679Z,4.70
2023-05-12T06:18:53.386Z,4.70
2023-05-12T06:21:21.142Z,4.63
2023-05-12T06:23:47.860Z,4.90
2023-05-12T06:26:14.584Z,4.23
2023-05-12T06:28:41.187Z,5.10
2023-05-12T06:31:08.641Z,5.50
2023-05-12T06:33:35.429Z,5.33
2023-05-12T06:36:02.164Z,5.10
2023-05-12T06:38:28.742Z,4.57
2023-05-12T06:40:55.531Z,5.07
2023-05-12T06:43:23.300Z,5.40
2023-05-12T06:45:54.341Z,4.50
2023-05-12T06:48:20.914Z,6.00
2023-05-12T06:50:47.444Z,5.17
2023-05-12T06:53:14.413Z,6.00
2023-05-12T06:55:43.778Z,4.80
2023-05-12T06:58:10.297Z,5.60
2023-05-12T07:00:37.221Z,4.97
2023-05-12T07:03:04.154Z,5.03
2023-05-12T07:05:30.983Z,4.50
2023-05-12T07:07:57.538Z,4.60
2023-05-12T07:10:24.037Z,4.97
2023-05-12T07:12:50.628Z,4.97
2023-05-12T07:15:17.622Z,4.83
2023-05-12T07:17:44.238Z,4.47
2023-05-12T07:20:11.261Z,4.60
2023-05-12T07:22:39.074Z,4.67
2023-05-12T07:25:07.529Z,4.60
2023-05-12T07:27:34.299Z,4.80
2023-05-12T07:30:01.337Z,5.60
2023-05-12T07:32:28.030Z,5.07
2023-05-12T07:34:54.572Z,4.77
2023-05-12T07:37:21.534Z,4.70
2023-05-12T07:39:48.559Z,4.53
2023-05-12T07:42:15.639Z,4.50
2023-05-12T07:44:42.304Z,4.33
2023-05-12T07:47:09.282Z,4.13
2023-05-12T07:49:35.837Z,4.80
2023-05-12T07:52:03.033Z,4.27
2023-05-12T07:54:29.590Z,4.83
2023-05-12T07:56:56.143Z,4.30
2023-05-12T07:59:23.030Z,5.20
2023-05-12T08:01:49.786Z,4.37
2023-05-12T08:04:16.419Z,4.97
2023-05-12T08:06:42.953Z,4.10
2023-05-12T08:09:09.478Z,4.63
2023-05-12T08:11:36.263Z,6.33
2023-05-12T08:14:03.944Z,5.10
2023-05-12T08:16:30.556Z,5.13
2023-05-12T08:18:58.649Z,4.30
2023-05-12T08:21:25.646Z,5.20
2023-05-12T08:23:52.169Z,5.50
2023-05-12T08:26:18.768Z,4.40
2023-05-12T08:28:45.828Z,4.30
2023-05-12T08:31:12.658Z,4.40
2023-05-12T08:33:39.723Z,4.47
2023-05-12T08:36:06.298Z,4.40
2023-05-12T08:38:33.059Z,3.93
2023-05-12T08:41:13.212Z,4.70
2023-05-12T08:43:44.624Z,4.33
2023-05-12T08:46:14.536Z,4.87
2023-05-12T08:48:41.369Z,4.47
2023-05-12T08:51:11.693Z,4.30
2023-05-12T08:53:40.251Z,4.50
2023-05-12T08:58:42.079Z,4.97
2023-05-12T09:01:12.187Z,4.57
2023-05-12T09:03:39.314Z,4.00
2023-05-12T09:06:06.744Z,4.00
2023-05-12T09:08:34.910Z,4.30
2023-05-12T09:11:02.855Z,5.00
2023-05-12T09:13:54.789Z,4.87
2023-05-12T09:16:26.522Z,4.63
2023-05-12T09:18:55.494Z,3.97
2023-05-12T09:21:22.643Z,3.93
2023-05-12T09:23:56.996Z,4.07
2023-05-12T09:26:25.884Z,4.27
2023-05-12T09:28:53.877Z,4.17
2023-05-12T09:31:22.726Z,3.97
2023-05-12T09:33:50.948Z,3.60
2023-05-12T09:36:19.657Z,3.80
2023-05-12T09:38:46.236Z,3.70
2023-05-12T09:41:13.242Z,3.30
2023-05-12T09:43:46.363Z,3.17
2023-05-12T09:46:14.977Z,3.37
2023-05-12T09:48:41.890Z,3.10
2023-05-12T09:51:10.760Z,3.50
2023-05-12T09:53:42.982Z,3.23
2023-05-12T09:56:11.983Z,3.73
2023-05-12T09:58:47.172Z,3.27
2023-05-12T10:01:22.824Z,3.50
2023-05-12T10:03:57.027Z,4.83
2023-05-12T10:06:29.986Z,4.10
2023-05-12T10:09:15.921Z,3.20
2023-05-12T10:11:44.027Z,3.63
2023-05-12T10:14:11.252Z,3.67
2023-05-12T10:16:38.329Z,3.30
2023-05-12T10:19:05.921Z,3.30
2023-05-12T10:21:33.472Z,2.83
2023-05-12T10:24:00.771Z,3.27
2023-05-12T10:26:28.560Z,3.00
2023-05-12T10:28:55.420Z,3.23
2023-05-12T10:31:23.445Z,3.00
2023-05-12T10:33:57.806Z,2.53
2023-05-12T10:36:24.706Z,2.70
2023-05-12T10:38:51.859Z,2.73
2023-05-12T10:41:29.923Z,2.60
2023-05-12T10:43:56.648Z,3.00
2023-05-12T10:46:26.307Z,3.53
2023-05-12T10:49:10.077Z,3.53
2023-05-12T10:51:42.975Z,2.73
2023-05-12T10:54:11.782Z,3.17
2023-05-12T10:56:38.549Z,2.67
2023-05-12T10:59:17.240Z,2.50
2023-05-12T11:02:02.183Z,2.70
2023-05-12T11:04:43.254Z,3.00
2023-05-12T11:07:12.633Z,3.30
2023-05-12T11:09:56.039Z,2.90
2023-05-12T11:12:28.864Z,2.90
2023-05-12T11:14:55.530Z,2.43
2023-05-12T11:17:22.791Z,2.70
2023-05-12T11:19:50.488Z,3.13
2023-05-12T11:22:19.987Z,2.67
2023-05-12T11:24:47.865Z,2.77
2023-05-12T11:27:17.202Z,2.87
2023-05-12T11:29:46.947Z,2.87
2023-05-12T11:32:15.658Z,2.60
2023-05-12T11:34:42.798Z,3.00
2023-05-12T11:37:09.348Z,2.50
2023-05-12T11:39:36.349Z,3.03
2023-05-12T11:42:12.026Z,2.67
2023-05-12T11:44:49.621Z,3.10
2023-05-12T11:47:19.692Z,3.53
2023-05-12T11:49:51.155Z,2.73
2023-05-12T11:52:19.749Z,2.77
2023-05-12T11:54:57.276Z,3.33
2023-05-12T11:57:38.296Z,2.27
2023-05-12T12:00:07.070Z,2.33
2023-05-12T12:02:36.649Z,2.50
2023-05-12T12:05:03.864Z,2.37
2023-05-12T12:07:35.435Z,2.43
2023-05-12T12:10:31.779Z,2.80
2023-05-12T12:13:00.431Z,2.80
2023-05-12T12:15:28.056Z,2.20
2023-05-12T12:17:54.788Z,2.83
2023-05-12T12:20:21.886Z,2.83
2023-05-12T12:22:48.470Z,2.40
2023-05-12T12:25:15.028Z,2.77
2023-05-12T12:27:42.049Z,2.63
2023-05-12T12:30:09.572Z,2.20
2023-05-12T12:32:36.230Z,2.47
2023-05-12T12:35:06.272Z,3.17
2023-05-12T12:37:33.067Z,2.87
2023-05-12T12:40:00.083Z,2.70
2023-05-12T12:42:26.847Z,2.33
2023-05-12T12:44:53.695Z,3.00
2023-05-12T12:47:20.321Z,2.60
2023-05-12T12:49:47.017Z,4.00
2023-05-12T12:52:13.548Z,2.50
2023-05-12T12:54:40.162Z,2.77
2023-05-12T12:57:07.065Z,2.60
2023-05-12T12:59:33.694Z,2.60
2023-05-12T13:02:01.344Z,2.90
2023-05-12T13:04:27.941Z,2.67
2023-05-12T13:06:54.486Z,2.60
2023-05-12T13:09:21.039Z,2.70
2023-05-12T13:11:47.900Z,2.47
2023-05-12T13:14:14.555Z,2.30
2023-05-12T13:16:41.181Z,2.30
2023-05-12T13:19:08.368Z,2.70
2023-05-12T13:21:35.030Z,2.67
2023-05-12T13:24:01.648Z,2.10
2023-05-12T13:26:28.355Z,2.40
2023-05-12T13:28:54.901Z,2.50
2023-05-12T13:31:21.566Z,2.30
2023-05-12T13:33:48.190Z,2.07
2023-05-12T13:36:14.757Z,1.90
2023-05-12T13:38:43.205Z,2.10
2023-05-12T13:41:09.749Z,2.13
2023-05-12T13:43:36.382Z,2.33
2023-05-12T13:46:03.212Z,2.50
2023-05-12T13:48:29.768Z,2.40
2023-05-12T13:50:56.454Z,2.40
2023-05-12T13:53:22.976Z,2.43
2023-05-12T13:55:49.738Z,2.33
2023-05-12T13:58:16.408Z,3.37
2023-05-12T14:00:42.917Z,2.30
2023-05-12T14:03:10.326Z,2.80
2023-05-12T14:05:36.901Z,2.90
2023-05-12T14:08:03.831Z,2.30
2023-05-12T14:10:32.349Z,2.23
2023-05-12T14:12:58.916Z,2.30
2023-05-12T14:15:36.164Z,2.70
2023-05-12T14:18:11.524Z,2.63
2023-05-12T14:20:38.135Z,2.90
2023-05-12T14:23:04.679Z,2.83
2023-05-12T14:25:31.278Z,2.93
2023-05-12T14:27:58.678Z,2.40
2023-05-12T14:30:25.264Z,2.43
2023-05-12T14:32:53.319Z,2.53
2023-05-12T14:35:20.253Z,2.60
2023-05-12T14:37:46.945Z,2.30
2023-05-12T14:40:14.076Z,2.87
2023-05-12T14:42:40.678Z,3.40
2023-05-12T14:45:07.984Z,3.60
2023-05-12T14:47:34.604Z,2.70
2023-05-12T14:50:01.149Z,4.10
2023-05-12T14:52:27.824Z,3.70
2023-05-12T14:54:54.473Z,3.23
2023-05-12T14:57:21.654Z,3.70
2023-05-12T14:59:48.637Z,2.50
2023-05-12T15:02:15.225Z,2.50
2023-05-12T15:04:42.125Z,2.20
2023-05-12T15:07:08.683Z,2.63
2023-05-12T15:09:35.288Z,2.73
2023-05-12T15:12:03.825Z,2.80
2023-05-12T15:14:30.374Z,3.07
2023-05-12T15:16:57.018Z,4.50
2023-05-12T15:19:23.633Z,4.20
2023-05-12T15:21:50.230Z,2.50
2023-05-12T15:24:17.247Z,2.57
2023-05-12T15:26:43.839Z,2.07
2023-05-12T15:29:10.535Z,2.20
2023-05-12T15:31:37.133Z,2.77
2023-05-12T15:34:03.790Z,2.70
2023-05-12T15:36:30.862Z,2.70
2023-05-12T15:38:57.517Z,2.30
2023-05-12T15:41:24.083Z,2.40
2023-05-12T15:43:50.611Z,2.70
2023-05-12T15:46:17.614Z,2.93
2023-05-12T15:48:44.519Z,1.87
2023-05-12T15:51:11.076Z,2.80
2023-05-12T15:53:37.592Z,2.40
2023-05-12T15:56:05.164Z,2.10
2023-05-12T15:58:31.891Z,2.37
2023-05-12T16:00:59.026Z,2.80
2023-05-12T16:03:25.810Z,2.50
2023-05-12T16:05:52.614Z,2.80
2023-05-12T16:08:20.329Z,2.50
2023-05-12T16:10:46.937Z,2.33
2023-05-12T16:13:14.882Z,2.73
2023-05-12T16:15:41.457Z,2.70
2023-05-12T16:18:10.855Z,2.67
2023-05-12T16:20:38.701Z,2.17
2023-05-12T16:23:05.291Z,2.40
2023-05-12T16:25:31.872Z,2.63
2023-05-12T16:27:58.405Z,2.83
2023-05-12T16:30:25.079Z,2.53
2023-05-12T16:32:51.695Z,2.30
2023-05-12T16:35:18.786Z,2.67
2023-05-12T16:37:45.826Z,2.67
2023-05-12T16:40:12.562Z,2.87
2023-05-12T16:42:39.184Z,2.17
2023-05-12T16:45:06.723Z,2.57
2023-05-12T16:47:33.330Z,2.10
2023-05-12T16:50:00.141Z,2.80
2023-05-12T16:52:27.002Z,2.63
2023-05-12T16:54:55.989Z,2.77
2023-05-12T16:57:23.886Z,2.50
2023-05-12T16:59:51.499Z,2.60
2023-05-12T17:02:18.601Z,2.80
2023-05-12T17:04:46.422Z,2.37
2023-05-12T17:07:13.299Z,2.77
2023-05-12T17:09:40.582Z,2.70
2023-05-12T17:12:08.259Z,2.60
2023-05-12T17:14:34.935Z,2.43
2023-05-12T17:17:02.204Z,2.07
2023-05-12T17:19:28.907Z,2.40
2023-05-12T17:21:55.546Z,2.40
2023-05-12T17:24:22.351Z,2.50
2023-05-12T17:26:48.983Z,2.20
2023-05-12T17:29:16.097Z,3.00
2023-05-12T17:31:42.918Z,3.47
2023-05-12T17:34:10.121Z,3.20
2023-05-12T17:36:37.294Z,2.80
2023-05-12T17:39:04.496Z,2.63
2023-05-12T17:41:31.097Z,2.03
2023-05-12T17:43:57.693Z,2.33
2023-05-12T17:46:24.450Z,2.67
2023-05-12T17:48:51.273Z,2.90
2023-05-12T17:51:18.068Z,2.30
2023-05-12T17:53:44.840Z,2.60
2023-05-12T17:56:11.670Z,2.30
2023-05-12T17:58:38.500Z,2.70
2023-05-12T18:01:05.437Z,2.40
2023-05-12T18:03:32.853Z,2.50
2023-05-12T18:05:59.585Z,2.77
2023-05-12T18:08:27.103Z,2.67
2023-05-12T18:10:53.979Z,2.23
2023-05-12T18:13:20.691Z,2.70
2023-05-12T18:15:49.630Z,2.93
2023-05-12T18:18:16.723Z,2.90
2023-05-12T18:20:43.680Z,3.10
2023-05-12T18:23:10.522Z,2.70
2023-05-12T18:25:37.424Z,2.40
2023-05-12T18:28:06.260Z,3.30
2023-05-12T18:30:33.329Z,3.40
2023-05-12T18:33:00.340Z,3.30
2023-05-12T18:35:27.286Z,3.10
2023-05-12T18:37:54.445Z,3.50
2023-05-12T18:40:21.339Z,3.07
2023-05-12T18:42:48.143Z,3.10
2023-05-12T18:45:15.582Z,3.47
2023-05-12T18:47:42.327Z,3.50
2023-05-12T18:50:09.861Z,3.63
2023-05-12T18:52:37.042Z,3.27
2023-05-12T18:55:03.998Z,2.97
2023-05-12T18:57:31.549Z,3.00
2023-05-12T18:59:58.439Z,2.80
2023-05-12T19:02:25.415Z,3.47
2023-05-12T19:04:52.482Z,3.50
2023-05-12T19:07:19.674Z,2.87
2023-05-12T19:09:46.410Z,2.60
2023-05-12T19:12:13.138Z,2.87
2023-05-12T19:14:40.702Z,3.00
2023-05-12T19:17:07.716Z,3.10
2023-05-12T19:19:34.862Z,3.13
2023-05-12T19:22:04.064Z,3.30
2023-05-12T19:24:30.903Z,2.73
2023-05-12T19:26:57.612Z,3.03
2023-05-12T19:29:24.800Z,3.30
2023-05-12T19:31:53.161Z,3.57
2023-05-12T19:34:20.072Z,3.20
2023-05-12T19:36:46.914Z,3.33
2023-05-12T19:39:13.914Z,2.77
2023-05-12T19:41:41.078Z,2.97
2023-05-12T19:44:07.899Z,3.40
2023-05-12T19:46:34.669Z,2.87
2023-05-12T19:49:02.454Z,3.30
2023-05-12T19:51:29.584Z,2.60
2023-05-12T19:53:56.329Z,3.30
2023-05-12T19:56:23.215Z,3.20
2023-05-12T19:58:50.423Z,3.20
2023-05-12T20:01:17.368Z,3.20
2023-05-12T20:03:44.154Z,3.80
2023-05-12T20:06:11.052Z,3.50
2023-05-12T20:08:37.976Z,3.10
2023-05-12T20:11:04.691Z,3.00
2023-05-12T20:13:31.667Z,3.33
2023-05-12T20:15:59.549Z,3.13
2023-05-12T20:18:27.519Z,3.87
2023-05-12T20:20:55.607Z,4.03
2023-05-12T20:23:22.741Z,4.00
2023-05-12T20:25:49.490Z,4.10
2023-05-12T20:28:16.292Z,3.03
2023-05-12T20:30:43.254Z,4.27
2023-05-12T20:33:10.039Z,3.67
2023-05-12T20:35:36.910Z,3.87
2023-05-12T20:38:03.577Z,3.50
2023-05-12T20:40:30.280Z,3.50
2023-05-12T20:42:57.168Z,4.20
2023-05-12T20:45:24.218Z,3.53
2023-05-12T20:47:51.129Z,4.20
2023-05-12T20:50:17.853Z,3.47
2023-05-12T20:52:47.187Z,4.00
2023-05-12T20:55:13.840Z,3.47
2023-05-12T20:57:41.681Z,4.17
2023-05-12T21:00:13.467Z,3.83
2023-05-12T21:02:40.110Z,3.80
2023-05-12T21:05:07.355Z,4.20
2023-05-12T21:07:33.949Z,4.43
2023-05-12T21:10:00.884Z,3.73
2023-05-12T21:12:27.606Z,4.00
2023-05-12T21:14:54.122Z,3.53
2023-05-12T21:17:21.413Z,3.47
2023-05-12T21:19:47.991Z,3.10
2023-05-12T21:22:15.717Z,3.20
2023-05-12T21:24:42.886Z,4.13
2023-05-12T21:27:09.446Z,3.60
2023-05-12T21:29:37.085Z,3.30
2023-05-12T21:32:04.141Z,3.80
2023-05-12T21:34:33.472Z,3.30
2023-05-12T21:37:00.732Z,3.73
2023-05-12T21:39:27.921Z,3.50
2023-05-12T21:41:54.960Z,3.60
2023-05-12T21:44:21.660Z,4.70
2023-05-12T21:46:48.317Z,3.80
2023-05-12T21:49:14.930Z,4.20
2023-05-12T21:51:41.952Z,3.60
2023-05-12T21:54:08.839Z,3.33
2023-05-12T21:56:35.432Z,3.17
2023-05-12T21:59:01.992Z,3.87
2023-05-12T22:01:29.672Z,3.73
2023-05-12T22:03:59.385Z,3.97
2023-05-12T22:06:26.123Z,4.30
2023-05-12T22:08:53.927Z,3.80
2023-05-12T22:11:21.495Z,4.20
2023-05-12T22:13:48.140Z,3.73
2023-05-12T22:16:15.514Z,4.10
2023-05-12T22:18:45.597Z,3.70
2023-05-12T22:21:12.715Z,4.10
2023-05-12T22:23:39.731Z,3.67
2023-05-12T22:26:06.678Z,3.93
2023-05-12T22:28:33.305Z,3.73
2023-05-12T22:31:00.207Z,4.10
2023-05-12T22:33:26.954Z,2.93
2023-05-12T22:35:53.535Z,3.53
2023-05-12T22:38:20.141Z,3.50
2023-05-12T22:40:46.974Z,3.20
2023-05-12T22:43:13.746Z,3.43
2023-05-12T22:45:40.483Z,3.40
2023-05-12T22:48:07.482Z,3.77
2023-05-12T22:50:34.063Z,3.30
2023-05-12T22:53:01.079Z,3.10
2023-05-12T22:55:30.736Z,3.20
2023-05-12T22:57:58.037Z,3.80
2023-05-12T23:00:24.577Z,3.30
2023-05-12T23:02:51.803Z,2.97
2023-05-12T23:05:18.950Z,3.70
2023-05-12T23:07:45.572Z,3.40
2023-05-12T23:10:12.235Z,4.00
2023-05-12T23:12:39.477Z,3.30
2023-05-12T23:15:07.597Z,4.13
2023-05-12T23:17:34.224Z,4.10
2023-05-12T23:20:00.902Z,3.77
2023-05-12T23:22:27.515Z,3.23
2023-05-12T23:24:55.372Z,2.97
2023-05-12T23:27:21.958Z,3.73
2023-05-12T23:29:48.584Z,4.37
2023-05-12T23:32:15.321Z,3.70
2023-05-12T23:34:42.721Z,3.33
2023-05-12T23:37:09.541Z,3.87
2023-05-12T23:39:36.110Z,3.60
2023-05-12T23:42:03.734Z,3.90
2023-05-12T23:44:30.457Z,3.57
2023-05-12T23:46:57.070Z,3.60
2023-05-12T23:49:23.892Z,4.80
2023-05-12T23:51:50.906Z,3.70
2023-05-12T23:54:17.439Z,3.13
2023-05-12T23:56:44.065Z,3.80
2023-05-12T23:59:10.617Z,3.67
